Time;durP1;ratioP1;P1;durP2;ratioP2;P2;SDS_P1;SDS_P2;PMS_P1;PMS_P2;Temp;Humidity;BMP_temperature;BMP_pressure;BME280_temperature;BME280_humidity;BME280_pressure;Samples;Min_cycle;Max_cycle;Signal;HPM_P1;HPM_P2
2021/12/31 00:00:19;;;;;;;5.30;2.47;;;7.00;99.90;;;;;;5125203;27;20022;-72
2021/12/31 00:02:44;;;;;;;6.05;3.85;;;7.10;99.90;;;;;;5127615;27;20026;-72
2021/12/31 00:05:10;;;;;;;6.53;3.47;;;6.70;99.90;;;;;;5127596;27;20619;-72
2021/12/31 00:07:36;;;;;;;6.05;2.65;;;6.50;99.90;;;;;;5126887;27;20545;-72
2021/12/31 00:10:04;;;;;;;4.60;2.30;;;6.30;99.90;;;;;;5127528;27;20058;-72
2021/12/31 00:12:31;;;;;;;4.13;2.03;;;6.30;99.90;;;;;;5127015;27;20039;-72
2021/12/31 00:14:57;;;;;;;3.40;1.77;;;6.70;99.90;;;;;;5127096;27;20023;-72
2021/12/31 00:17:24;;;;;;;7.53;3.55;;;6.80;99.90;;;;;;5128746;27;20058;-72
2021/12/31 00:19:59;;;;;;;7.03;4.22;;;6.80;99.90;;;;;;5130686;27;20031;-72
2021/12/31 00:25:10;;;;;;;5.93;3.20;;;6.20;99.90;;;;;;5132427;27;20555;-72
2021/12/31 00:27:36;;;;;;;7.10;2.83;;;6.20;99.90;;;;;;5133324;27;20047;-72
2021/12/31 00:30:02;;;;;;;6.53;3.17;;;6.00;99.90;;;;;;5132218;27;20106;-72
2021/12/31 00:32:28;;;;;;;5.15;2.83;;;5.80;99.90;;;;;;5133032;27;20110;-72
2021/12/31 00:34:53;;;;;;;5.90;2.58;;;5.80;99.90;;;;;;5132511;27;20547;-72
2021/12/31 00:37:27;;;;;;;6.32;2.72;;;5.80;99.90;;;;;;5131268;27;20027;-72
2021/12/31 00:40:11;;;;;;;7.03;2.80;;;5.80;99.90;;;;;;5111465;28;20019;-72
2021/12/31 00:46:19;;;;;;;4.53;2.42;;;6.10;99.90;;;;;;5132192;28;21303;-72
2021/12/31 00:49:07;;;;;;;6.18;3.05;;;6.30;99.90;;;;;;5132573;28;20550;-73
2021/12/31 00:51:45;;;;;;;4.80;2.58;;;6.10;99.90;;;;;;5132934;28;20028;-72
2021/12/31 00:54:11;;;;;;;6.43;2.70;;;6.00;99.90;;;;;;5125272;28;20026;-72
2021/12/31 00:56:37;;;;;;;4.75;2.40;;;6.00;99.90;;;;;;5130036;28;20024;-72
2021/12/31 00:59:03;;;;;;;4.25;2.00;;;6.00;99.90;;;;;;5132701;28;20099;-72
2021/12/31 01:01:31;;;;;;;5.32;2.80;;;5.90;99.90;;;;;;5135630;27;20023;-72
2021/12/31 01:03:57;;;;;;;6.45;3.28;;;6.00;99.90;;;;;;5135627;27;20027;-72
2021/12/31 01:06:23;;;;;;;5.78;3.22;;;5.90;99.90;;;;;;5136740;27;20427;-72
2021/12/31 01:08:48;;;;;;;6.25;2.72;;;5.90;99.90;;;;;;5136324;27;20031;-72
2021/12/31 01:11:14;;;;;;;5.90;3.42;;;6.00;99.90;;;;;;5136541;27;20078;-72
2021/12/31 01:14:22;;;;;;;6.43;4.05;;;6.20;99.90;;;;;;5136224;27;20026;-72
2021/12/31 01:16:38;;;;;;;7.57;4.15;;;6.10;99.90;;;;;;5133106;27;20557;-72
2021/12/31 01:21:33;;;;;;;11.40;6.38;;;6.30;99.90;;;;;;5136544;27;20038;-72
2021/12/31 01:24:00;;;;;;;8.30;3.22;;;6.20;99.90;;;;;;5126711;27;20033;-72
2021/12/31 01:26:27;;;;;;;6.53;3.58;;;6.10;99.90;;;;;;5132903;27;20084;-72
2021/12/31 01:28:53;;;;;;;6.30;3.50;;;6.00;99.90;;;;;;5132234;27;20469;-72
2021/12/31 01:31:21;;;;;;;6.20;2.95;;;6.00;99.90;;;;;;5133174;27;20025;-72
2021/12/31 01:33:47;;;;;;;4.97;2.92;;;6.20;99.90;;;;;;5134857;27;20027;-72
2021/12/31 01:36:13;;;;;;;5.40;2.65;;;6.10;99.90;;;;;;5133459;27;20080;-72
2021/12/31 01:38:38;;;;;;;4.70;2.35;;;6.00;99.90;;;;;;5134893;27;20035;-72
2021/12/31 01:41:04;;;;;;;7.72;2.20;;;6.00;99.90;;;;;;5132807;27;20469;-72
2021/12/31 01:43:30;;;;;;;6.00;2.72;;;6.10;99.90;;;;;;5134347;27;20102;-72
2021/12/31 01:45:59;;;;;;;4.35;2.20;;;6.40;99.90;;;;;;5134504;27;20046;-72
2021/12/31 01:48:34;;;;;;;7.45;2.95;;;7.30;99.90;;;;;;5133447;27;20041;-72
2021/12/31 01:51:00;;;;;;;4.82;2.50;;;7.30;99.90;;;;;;5132602;27;20469;-72
2021/12/31 01:53:26;;;;;;;6.80;2.33;;;7.50;99.90;;;;;;5132143;27;20023;-72
2021/12/31 01:55:57;;;;;;;4.05;2.20;;;7.80;99.90;;;;;;5134483;27;20023;-72
2021/12/31 01:58:25;;;;;;;4.40;2.58;;;7.50;99.90;;;;;;5134163;27;20023;-72
2021/12/31 02:00:51;;;;;;;5.03;2.42;;;7.00;99.90;;;;;;5133111;27;20035;-72
2021/12/31 02:03:23;;;;;;;4.50;2.50;;;6.70;99.90;;;;;;5133964;27;20084;-72
2021/12/31 02:05:49;;;;;;;3.90;2.10;;;6.50;99.90;;;;;;5134772;27;20481;-72
2021/12/31 02:08:16;;;;;;;3.17;1.50;;;6.30;99.90;;;;;;5135243;27;20034;-72
2021/12/31 02:10:42;;;;;;;5.07;1.67;;;6.30;99.90;;;;;;5135548;27;20051;-72
2021/12/31 02:13:13;;;;;;;3.60;1.92;;;6.30;99.90;;;;;;5135044;27;20088;-72
2021/12/31 02:15:40;;;;;;;5.60;2.70;;;6.40;99.90;;;;;;5134710;27;20031;-72
2021/12/31 02:18:09;;;;;;;5.63;3.20;;;6.20;99.90;;;;;;5135399;27;20076;-72
2021/12/31 02:20:39;;;;;;;5.00;2.97;;;6.10;99.90;;;;;;5134342;27;20023;-72
2021/12/31 02:23:07;;;;;;;5.65;3.10;;;5.90;99.90;;;;;;5134623;27;20027;-72
2021/12/31 02:25:35;;;;;;;5.65;2.38;;;5.90;99.90;;;;;;5133908;27;20100;-72
2021/12/31 02:28:02;;;;;;;4.65;2.10;;;5.90;99.90;;;;;;5133948;27;20080;-72
2021/12/31 02:30:29;;;;;;;4.15;2.00;;;6.10;99.90;;;;;;5134556;27;20072;-72
2021/12/31 02:32:55;;;;;;;4.00;2.15;;;6.60;99.90;;;;;;5133841;27;20080;-72
2021/12/31 02:35:21;;;;;;;4.47;2.13;;;7.20;99.90;;;;;;5134115;27;20047;-72
2021/12/31 02:37:46;;;;;;;3.78;1.60;;;7.70;99.90;;;;;;5133987;27;20055;-72
2021/12/31 02:40:16;;;;;;;7.35;1.85;;;7.70;99.90;;;;;;5134374;27;20064;-72
2021/12/31 02:42:42;;;;;;;5.88;2.15;;;7.30;99.90;;;;;;5133395;27;20039;-72
2021/12/31 02:45:09;;;;;;;5.30;2.95;;;7.50;99.90;;;;;;5134239;27;20489;-72
2021/12/31 02:47:38;;;;;;;5.70;3.28;;;7.10;99.90;;;;;;5133918;27;20027;-72
2021/12/31 02:50:05;;;;;;;5.38;2.80;;;6.60;99.90;;;;;;5134193;27;20019;-72
2021/12/31 02:52:31;;;;;;;51.72;25.05;;;6.30;99.90;;;;;;5133285;27;20011;-72
2021/12/31 02:54:59;;;;;;;7.18;4.93;;;6.00;99.90;;;;;;5133758;27;20053;-72
2021/12/31 02:57:25;;;;;;;5.68;1.83;;;5.90;99.90;;;;;;5133728;27;20043;-72
2021/12/31 02:59:51;;;;;;;4.82;2.47;;;6.30;99.90;;;;;;5133722;27;20102;-72
2021/12/31 03:02:23;;;;;;;4.90;2.45;;;6.00;99.90;;;;;;5133630;27;20060;-72
2021/12/31 03:04:50;;;;;;;5.75;3.05;;;5.80;99.90;;;;;;5132644;27;20039;-72
2021/12/31 03:07:17;;;;;;;7.22;3.38;;;5.90;99.90;;;;;;5133446;27;20034;-72
2021/12/31 03:09:46;;;;;;;5.70;3.20;;;5.80;99.90;;;;;;5133748;27;20148;-72
2021/12/31 03:12:14;;;;;;;7.22;3.38;;;5.70;99.90;;;;;;5133364;27;20493;-72
2021/12/31 03:14:45;;;;;;;7.72;3.40;;;5.60;99.90;;;;;;5133192;27;20080;-72
2021/12/31 03:17:13;;;;;;;8.30;3.13;;;5.70;99.90;;;;;;5133276;27;20080;-72
2021/12/31 03:19:38;;;;;;;5.35;1.90;;;5.70;99.90;;;;;;5133458;27;20569;-72
2021/12/31 03:22:04;;;;;;;4.13;1.90;;;6.10;99.90;;;;;;5133230;27;20059;-72
2021/12/31 03:24:30;;;;;;;7.25;4.15;;;6.00;99.90;;;;;;5132566;27;20512;-72
2021/12/31 03:26:56;;;;;;;5.45;3.13;;;6.10;99.90;;;;;;5133707;27;20027;-72
2021/12/31 03:29:22;;;;;;;4.63;2.28;;;6.10;99.90;;;;;;5132960;27;20027;-72
2021/12/31 03:31:48;;;;;;;4.63;2.45;;;5.90;99.90;;;;;;5133185;27;20446;-72
2021/12/31 03:34:14;;;;;;;6.35;2.80;;;5.80;99.90;;;;;;5132456;27;20027;-72
2021/12/31 03:36:43;;;;;;;4.50;2.28;;;5.80;99.90;;;;;;5133062;27;20026;-72
2021/12/31 03:39:10;;;;;;;5.70;2.30;;;5.70;99.90;;;;;;5132844;27;20031;-72
2021/12/31 03:41:36;;;;;;;5.13;1.50;;;5.90;99.90;;;;;;5133234;27;20034;-72
2021/12/31 03:44:05;;;;;;;4.32;2.30;;;5.80;99.90;;;;;;5131964;27;20027;-72
2021/12/31 03:46:31;;;;;;;5.53;2.70;;;5.60;99.90;;;;;;5133037;27;20023;-72
2021/12/31 03:48:57;;;;;;;3.35;1.73;;;5.50;99.90;;;;;;5132084;27;20031;-72
2021/12/31 03:51:22;;;;;;;7.38;2.70;;;5.80;99.90;;;;;;5133028;27;20019;-72
2021/12/31 03:53:48;;;;;;;5.78;2.30;;;6.40;99.90;;;;;;5132683;27;20049;-72
2021/12/31 03:56:14;;;;;;;3.63;2.00;;;6.10;99.90;;;;;;5132883;27;20039;-72
2021/12/31 03:58:40;;;;;;;6.32;2.83;;;6.30;99.90;;;;;;5132368;27;20110;-72
2021/12/31 04:01:06;;;;;;;5.47;2.60;;;5.90;99.90;;;;;;5130807;27;20031;-73
2021/12/31 04:03:32;;;;;;;5.82;2.90;;;5.90;99.90;;;;;;5117418;27;20019;-73
2021/12/31 04:05:57;;;;;;;7.65;3.30;;;5.80;99.90;;;;;;5116060;27;20039;-73
2021/12/31 04:08:23;;;;;;;8.05;3.60;;;5.60;99.90;;;;;;5124960;27;20507;-73
2021/12/31 04:10:49;;;;;;;7.03;3.47;;;5.50;99.90;;;;;;5125078;27;20134;-73
2021/12/31 04:13:15;;;;;;;7.43;3.53;;;5.40;99.90;;;;;;5124772;27;20034;-73
2021/12/31 04:15:41;;;;;;;5.20;2.80;;;5.30;99.90;;;;;;5124322;27;20028;-73
2021/12/31 04:18:07;;;;;;;5.93;3.13;;;5.50;99.90;;;;;;5124580;27;20385;-73
2021/12/31 04:20:44;;;;;;;5.70;2.85;;;5.30;99.90;;;;;;5125347;27;20377;-73
2021/12/31 04:23:26;;;;;;;5.50;3.08;;;5.40;99.90;;;;;;5124884;27;20034;-73
2021/12/31 04:25:52;;;;;;;5.18;2.72;;;5.30;99.90;;;;;;5124503;27;20027;-73
2021/12/31 04:28:18;;;;;;;4.57;2.30;;;5.50;99.90;;;;;;5124523;27;20123;-73
2021/12/31 04:30:43;;;;;;;4.80;2.10;;;5.60;99.90;;;;;;5126555;27;20432;-73
2021/12/31 04:33:09;;;;;;;4.10;1.80;;;5.70;99.90;;;;;;5127642;27;20023;-73
2021/12/31 04:35:35;;;;;;;4.78;2.50;;;5.60;99.90;;;;;;5126847;27;20024;-73
2021/12/31 04:38:00;;;;;;;5.32;2.10;;;5.80;99.90;;;;;;5127208;27;20381;-73
2021/12/31 04:40:26;;;;;;;3.67;1.40;;;6.10;99.90;;;;;;5127994;27;20062;-73
2021/12/31 04:42:52;;;;;;;3.03;1.40;;;7.00;99.90;;;;;;5127498;28;20027;-73
2021/12/31 04:45:18;;;;;;;3.00;1.77;;;7.00;99.90;;;;;;5127902;28;20035;-73
2021/12/31 04:47:44;;;;;;;4.03;2.10;;;6.80;99.90;;;;;;5126957;28;20030;-73
2021/12/31 04:50:10;;;;;;;6.57;3.00;;;6.40;99.90;;;;;;5127653;28;20027;-73
2021/12/31 04:52:37;;;;;;;4.75;2.45;;;6.10;99.90;;;;;;5127540;28;20031;-73
2021/12/31 04:55:04;;;;;;;3.85;1.88;;;6.00;99.90;;;;;;5127757;28;20027;-73
2021/12/31 04:57:29;;;;;;;5.63;2.30;;;5.90;99.90;;;;;;5126477;28;20031;-73
2021/12/31 04:59:55;;;;;;;6.03;2.28;;;5.90;99.90;;;;;;5124777;28;20049;-73
2021/12/31 05:02:21;;;;;;;2.80;1.58;;;5.70;99.90;;;;;;5124708;28;20106;-73
2021/12/31 05:04:47;;;;;;;3.03;1.70;;;5.40;99.90;;;;;;5124247;28;20084;-73
2021/12/31 05:07:12;;;;;;;3.33;1.73;;;5.40;99.90;;;;;;5124402;28;20031;-73
2021/12/31 05:09:38;;;;;;;3.90;1.98;;;5.50;99.90;;;;;;5124037;28;20027;-73
2021/12/31 05:12:05;;;;;;;3.90;2.10;;;5.40;99.90;;;;;;5124170;28;20073;-73
2021/12/31 05:14:31;;;;;;;4.55;1.92;;;5.40;99.90;;;;;;5124269;28;20584;-73
2021/12/31 05:16:58;;;;;;;3.08;1.58;;;5.30;99.90;;;;;;5124504;28;20079;-73
2021/12/31 05:19:24;;;;;;;3.72;1.90;;;5.40;99.90;;;;;;5123898;28;20027;-73
2021/12/31 05:21:50;;;;;;;3.50;1.65;;;5.40;99.90;;;;;;5124546;28;20019;-73
2021/12/31 05:24:16;;;;;;;3.97;1.70;;;5.80;99.90;;;;;;5123933;28;20027;-73
2021/12/31 05:26:43;;;;;;;4.10;2.38;;;5.80;99.90;;;;;;5124545;28;20564;-73
2021/12/31 05:29:09;;;;;;;3.63;1.85;;;5.80;99.90;;;;;;5123442;28;20038;-73
2021/12/31 05:31:35;;;;;;;3.92;1.63;;;5.80;99.90;;;;;;5124568;28;20023;-72
2021/12/31 05:34:00;;;;;;;4.18;1.60;;;5.90;99.90;;;;;;5123813;28;20023;-73
2021/12/31 05:36:26;;;;;;;2.17;1.05;;;6.00;99.90;;;;;;5123858;28;20103;-73
2021/12/31 05:38:52;;;;;;;3.38;1.10;;;6.00;99.90;;;;;;5104111;28;20426;-73
2021/12/31 05:41:18;;;;;;;2.67;1.17;;;6.10;99.90;;;;;;5124148;28;20533;-73
2021/12/31 05:43:43;;;;;;;3.47;1.55;;;6.20;99.90;;;;;;5123657;28;20027;-73
2021/12/31 05:46:09;;;;;;;2.05;1.00;;;6.30;99.90;;;;;;5124626;27;20027;-73
2021/12/31 05:48:35;;;;;;;2.72;1.15;;;6.60;99.90;;;;;;5127541;27;20041;-73
2021/12/31 05:51:01;;;;;;;4.18;1.73;;;6.60;99.90;;;;;;5127557;27;20436;-73
2021/12/31 05:53:27;;;;;;;3.63;1.75;;;6.60;99.90;;;;;;5128174;27;20540;-73
2021/12/31 05:55:53;;;;;;;4.72;1.90;;;6.30;99.90;;;;;;5127506;27;20120;-73
2021/12/31 05:58:18;;;;;;;3.35;1.90;;;6.10;99.90;;;;;;5127239;27;20031;-73
2021/12/31 06:00:44;;;;;;;2.60;1.30;;;6.10;99.90;;;;;;5126667;27;20098;-72
2021/12/31 06:03:10;;;;;;;4.70;1.85;;;6.00;99.90;;;;;;5127513;27;20057;-73
2021/12/31 06:05:36;;;;;;;2.65;0.93;;;5.80;99.90;;;;;;5126822;27;20114;-73
2021/12/31 06:08:02;;;;;;;3.22;1.45;;;5.80;99.90;;;;;;5127379;27;20038;-73
2021/12/31 06:10:28;;;;;;;2.88;1.33;;;5.80;99.90;;;;;;5126411;27;20055;-73
2021/12/31 06:12:59;;;;;;;3.85;1.92;;;5.90;99.90;;;;;;5127184;27;20110;-73
2021/12/31 06:15:27;;;;;;;4.43;2.30;;;5.80;99.90;;;;;;5127311;27;20095;-73
2021/12/31 06:17:52;;;;;;;5.18;2.30;;;5.70;99.90;;;;;;5127405;27;20535;-73
2021/12/31 06:20:19;;;;;;;3.45;1.70;;;5.60;99.90;;;;;;5126748;27;20031;-73
2021/12/31 06:22:44;;;;;;;2.80;1.27;;;5.70;99.90;;;;;;5126900;27;20114;-73
2021/12/31 06:25:10;;;;;;;2.42;0.93;;;5.80;99.90;;;;;;5127075;27;20469;-73
2021/12/31 06:27:36;;;;;;;2.78;1.40;;;5.90;99.90;;;;;;5126768;27;20027;-73
2021/12/31 06:30:04;;;;;;;2.45;1.15;;;5.90;99.90;;;;;;5126410;27;20425;-73
2021/12/31 06:32:30;;;;;;;2.55;1.23;;;6.00;99.90;;;;;;5126648;27;20027;-73
2021/12/31 06:34:55;;;;;;;2.78;1.25;;;5.90;99.90;;;;;;5126327;27;20020;-73
2021/12/31 06:37:21;;;;;;;4.82;1.45;;;5.80;99.90;;;;;;5127347;27;20034;-73
2021/12/31 06:39:47;;;;;;;2.58;1.17;;;5.70;99.90;;;;;;5126281;27;20507;-73
2021/12/31 06:42:13;;;;;;;3.28;1.38;;;6.40;99.90;;;;;;5107968;27;20037;-73
2021/12/31 06:44:39;;;;;;;2.42;1.02;;;6.70;99.90;;;;;;5126126;27;20035;-73
2021/12/31 06:47:06;;;;;;;3.03;1.10;;;6.50;99.90;;;;;;5126334;27;20468;-73
2021/12/31 06:49:32;;;;;;;3.13;1.55;;;6.30;99.90;;;;;;5126322;27;20065;-73
2021/12/31 06:51:58;;;;;;;2.25;1.00;;;6.40;99.90;;;;;;5126028;27;20119;-73
2021/12/31 06:54:24;;;;;;;3.20;1.30;;;6.50;99.90;;;;;;5126257;27;20437;-73
2021/12/31 06:56:49;;;;;;;3.72;1.50;;;6.50;99.90;;;;;;5126647;27;20875;-73
2021/12/31 06:59:15;;;;;;;4.10;1.40;;;6.40;99.90;;;;;;5125278;27;20030;-72
2021/12/31 07:01:41;;;;;;;3.83;1.67;;;6.20;99.90;;;;;;5125332;27;20176;-73
2021/12/31 07:04:07;;;;;;;3.85;1.80;;;6.10;99.90;;;;;;5122280;27;20027;-72
2021/12/31 07:06:33;;;;;;;3.85;1.38;;;5.90;99.90;;;;;;5124358;27;20034;-73
2021/12/31 07:08:58;;;;;;;3.15;1.70;;;5.80;99.90;;;;;;5125548;27;20069;-73
2021/12/31 07:11:24;;;;;;;2.95;1.13;;;6.20;99.90;;;;;;5125770;27;20533;-72
2021/12/31 07:13:50;;;;;;;3.53;1.25;;;6.40;99.90;;;;;;5126249;27;20076;-73
2021/12/31 07:16:16;;;;;;;2.45;1.00;;;6.70;99.90;;;;;;5125479;27;20128;-73
2021/12/31 07:18:42;;;;;;;2.75;1.10;;;6.60;99.90;;;;;;5125506;27;20027;-73
2021/12/31 07:21:08;;;;;;;2.78;1.27;;;6.60;99.90;;;;;;5125420;27;20076;-73
2021/12/31 07:23:34;;;;;;;2.42;1.27;;;6.60;99.90;;;;;;5126037;27;20102;-73
2021/12/31 07:26:00;;;;;;;3.25;1.60;;;6.70;99.90;;;;;;5124088;27;20084;-73
2021/12/31 07:28:27;;;;;;;3.22;1.65;;;6.50;99.90;;;;;;5125272;27;20023;-73
2021/12/31 07:30:53;;;;;;;3.60;2.47;;;6.20;99.90;;;;;;5125451;27;20054;-73
2021/12/31 07:33:23;;;;;;;3.53;1.80;;;6.00;99.90;;;;;;5126003;27;20473;-72
2021/12/31 07:35:50;;;;;;;3.30;1.60;;;5.80;99.90;;;;;;5124645;27;20059;-73
2021/12/31 07:38:25;;;;;;;2.30;1.38;;;5.70;99.90;;;;;;5125432;27;20034;-73
2021/12/31 07:40:51;;;;;;;2.85;1.35;;;5.80;99.90;;;;;;5125515;27;20051;-73
2021/12/31 07:43:18;;;;;;;2.42;1.02;;;6.30;99.90;;;;;;5125455;27;20102;-73
2021/12/31 07:45:44;;;;;;;2.63;1.20;;;6.60;99.90;;;;;;5124469;27;20553;-73
2021/12/31 07:48:10;;;;;;;2.90;1.67;;;6.70;99.90;;;;;;5125642;27;20507;-73
2021/12/31 07:50:36;;;;;;;2.53;1.30;;;6.50;99.90;;;;;;5124570;27;20057;-73
2021/12/31 07:53:04;;;;;;;5.35;2.00;;;6.60;99.90;;;;;;5125494;27;20019;-73
2021/12/31 07:55:42;;;;;;;3.40;1.40;;;6.50;99.90;;;;;;5124468;27;20079;-73
2021/12/31 07:58:24;;;;;;;3.83;1.50;;;6.20;99.90;;;;;;5122148;27;20042;-73
2021/12/31 08:00:54;;;;;;;1.98;1.20;;;5.80;99.90;;;;;;5117871;27;20102;-73
2021/12/31 08:03:20;;;;;;;2.70;1.13;;;5.90;99.90;;;;;;5124984;27;20031;-72
2021/12/31 08:05:46;;;;;;;2.95;1.35;;;5.90;99.90;;;;;;5124824;27;20039;-73
2021/12/31 08:08:12;;;;;;;3.20;1.35;;;6.00;99.90;;;;;;5121794;27;20089;-73
2021/12/31 08:10:38;;;;;;;4.93;1.70;;;6.20;99.90;;;;;;5122162;27;20043;-73
2021/12/31 08:13:04;;;;;;;3.95;2.13;;;6.30;99.90;;;;;;5124914;27;20054;-73
2021/12/31 08:16:13;;;;;;;3.47;1.80;;;6.40;99.90;;;;;;5125149;27;20084;-73
2021/12/31 08:19:02;;;;;;;3.40;1.50;;;6.40;99.90;;;;;;5115918;27;20047;-73
2021/12/31 08:21:28;;;;;;;6.13;3.05;;;6.00;99.90;;;;;;5124765;27;20169;-73
2021/12/31 08:24:05;;;;;;;4.00;2.03;;;5.70;99.90;;;;;;5124786;27;20071;-74
2021/12/31 08:26:49;;;;;;;5.47;2.30;;;5.70;99.90;;;;;;5124792;27;20118;-73
2021/12/31 08:29:33;;;;;;;6.03;2.80;;;5.90;99.90;;;;;;5122188;27;20032;-73
2021/12/31 08:32:16;;;;;;;5.65;2.85;;;5.60;99.90;;;;;;5125001;27;20452;-73
2021/12/31 08:34:55;;;;;;;2.92;1.50;;;5.60;99.90;;;;;;5126006;27;20032;-73
2021/12/31 08:37:38;;;;;;;2.67;1.13;;;6.00;99.90;;;;;;5125974;27;20023;-73
2021/12/31 08:40:09;;;;;;;4.40;1.63;;;6.40;99.90;;;;;;5122987;27;20027;-73
2021/12/31 08:42:50;;;;;;;3.40;1.50;;;6.40;99.90;;;;;;5124873;27;20072;-73
2021/12/31 08:45:34;;;;;;;5.13;2.40;;;6.30;99.90;;;;;;5124489;27;20035;-73
2021/12/31 08:51:45;;;;;;;4.38;1.92;;;6.50;99.90;;;;;;5121902;28;20034;-74
2021/12/31 08:54:24;;;;;;;5.05;2.70;;;6.30;99.90;;;;;;5126485;28;20408;-74
2021/12/31 08:57:04;;;;;;;5.72;2.78;;;6.20;99.90;;;;;;5127702;28;20024;-73
2021/12/31 08:59:30;;;;;;;5.30;2.03;;;6.20;99.90;;;;;;5127171;28;20048;-73
2021/12/31 09:01:56;;;;;;;5.38;3.30;;;6.30;99.90;;;;;;5125012;28;20019;-73
2021/12/31 09:04:22;;;;;;;6.32;3.72;;;5.90;99.90;;;;;;5124222;28;20443;-73
2021/12/31 09:06:47;;;;;;;5.10;2.63;;;5.70;99.90;;;;;;5100852;28;20079;-74
2021/12/31 09:09:13;;;;;;;5.70;3.53;;;5.60;99.90;;;;;;5124410;28;20535;-73
2021/12/31 09:11:40;;;;;;;3.70;1.90;;;5.80;99.90;;;;;;5123627;28;20051;-73
2021/12/31 09:14:06;;;;;;;4.05;1.80;;;6.20;99.90;;;;;;5124323;28;20034;-73
2021/12/31 09:16:32;;;;;;;3.15;1.20;;;6.50;99.90;;;;;;5123824;28;20027;-73
2021/12/31 09:18:58;;;;;;;5.13;1.60;;;6.60;99.90;;;;;;5109314;28;20115;-73
2021/12/31 09:21:24;;;;;;;3.15;1.50;;;6.70;99.90;;;;;;5116070;27;20106;-73
2021/12/31 09:23:50;;;;;;;4.97;2.00;;;6.60;99.90;;;;;;5128541;27;20034;-73
2021/12/31 09:26:16;;;;;;;4.68;2.40;;;6.70;99.90;;;;;;5127638;27;20069;-73
2021/12/31 09:28:43;;;;;;;3.30;1.70;;;6.50;99.90;;;;;;5125220;27;20031;-74
2021/12/31 09:31:10;;;;;;;2.78;1.55;;;6.60;99.90;;;;;;5126377;27;20629;-74
2021/12/31 09:33:36;;;;;;;2.95;1.50;;;6.70;99.90;;;;;;5127778;27;20038;-73
2021/12/31 09:36:02;;;;;;;2.20;1.30;;;6.70;99.90;;;;;;5127346;27;20019;-73
2021/12/31 09:38:28;;;;;;;2.95;1.45;;;6.80;99.90;;;;;;5127682;27;20606;-73
2021/12/31 09:40:55;;;;;;;2.92;1.45;;;6.90;99.90;;;;;;5126720;27;20035;-74
2021/12/31 09:43:21;;;;;;;3.13;1.55;;;7.00;99.90;;;;;;5128307;27;20023;-73
2021/12/31 09:45:50;;;;;;;3.85;1.50;;;7.20;99.90;;;;;;5127978;27;20092;-73
2021/12/31 09:48:19;;;;;;;3.20;1.52;;;7.30;99.90;;;;;;5128291;27;20023;-73
2021/12/31 09:50:48;;;;;;;3.53;1.48;;;7.20;99.90;;;;;;5118310;27;20090;-73
2021/12/31 09:53:15;;;;;;;3.78;1.80;;;7.00;99.90;;;;;;5128386;27;20053;-73
2021/12/31 09:55:51;;;;;;;3.03;1.40;;;6.70;99.90;;;;;;5127128;27;20105;-73
2021/12/31 09:58:18;;;;;;;3.63;2.05;;;6.60;99.90;;;;;;5108348;27;20073;-73
2021/12/31 10:00:48;;;;;;;3.47;1.92;;;6.50;99.90;;;;;;5119272;27;20043;-73
2021/12/31 10:03:25;;;;;;;4.05;1.88;;;6.70;99.90;;;;;;5127540;27;20027;-75
2021/12/31 10:05:52;;;;;;;3.95;1.90;;;6.80;99.90;;;;;;5128138;27;20561;-73
2021/12/31 10:08:38;;;;;;;4.00;1.58;;;6.80;99.90;;;;;;5127780;27;20568;-73
2021/12/31 10:11:14;;;;;;;2.60;1.60;;;6.80;99.90;;;;;;5126419;27;20384;-73
2021/12/31 10:13:42;;;;;;;3.85;2.25;;;7.20;99.90;;;;;;5127293;27;20792;-73
2021/12/31 10:16:36;;;;;;;3.75;2.00;;;7.10;99.90;;;;;;5127722;27;20820;-74
2021/12/31 10:19:08;;;;;;;2.90;1.45;;;6.90;99.90;;;;;;5126681;27;20725;-73
2021/12/31 10:21:46;;;;;;;2.60;1.33;;;7.00;99.90;;;;;;5126066;27;20023;-73
2021/12/31 10:24:37;;;;;;;2.80;1.52;;;7.10;99.90;;;;;;5127135;27;20484;-74
2021/12/31 10:27:03;;;;;;;3.13;1.70;;;7.30;99.90;;;;;;5126940;27;20047;-72
2021/12/31 10:29:28;;;;;;;2.92;1.45;;;7.20;99.90;;;;;;5127768;27;20053;-73
2021/12/31 10:31:55;;;;;;;2.67;1.35;;;7.10;99.90;;;;;;5126404;27;20351;-73
2021/12/31 10:34:32;;;;;;;5.63;2.03;;;7.50;99.90;;;;;;5126147;27;20023;-72
2021/12/31 10:37:04;;;;;;;2.80;1.38;;;7.60;99.90;;;;;;5127329;27;20019;-73
2021/12/31 10:39:37;;;;;;;3.03;1.50;;;7.50;99.90;;;;;;5126880;27;20102;-72
2021/12/31 10:42:08;;;;;;;3.87;1.60;;;7.50;99.90;;;;;;5126067;27;20027;-73
2021/12/31 10:44:53;;;;;;;2.70;1.42;;;7.50;99.90;;;;;;5126196;27;20284;-72
2021/12/31 10:47:29;;;;;;;5.22;1.70;;;7.40;99.90;;;;;;5127750;27;20401;-73
2021/12/31 10:50:03;;;;;;;4.05;2.03;;;7.30;99.90;;;;;;5126418;27;20034;-73
2021/12/31 10:52:45;;;;;;;;;;;7.40;99.90;;;;;;5127078;27;20027;-73
2021/12/31 10:55:22;;;;;;;3.53;1.63;;;7.40;99.90;;;;;;5127084;27;19904;-73
2021/12/31 10:57:51;;;;;;;3.03;1.48;;;7.70;99.90;;;;;;5126569;27;20027;-73
2021/12/31 11:00:18;;;;;;;3.53;1.60;;;8.10;99.90;;;;;;5127007;27;20015;-72
2021/12/31 11:02:45;;;;;;;4.25;2.95;;;8.70;99.90;;;;;;5125228;27;20525;-73
2021/12/31 11:05:13;;;;;;;9.20;4.47;;;8.80;99.90;;;;;;5125585;27;20087;-74
2021/12/31 11:07:40;;;;;;;6.22;3.45;;;8.40;99.90;;;;;;5126176;27;20019;-72
2021/12/31 11:10:06;;;;;;;3.92;2.40;;;8.30;99.90;;;;;;5125679;27;20046;-72
2021/12/31 11:12:34;;;;;;;3.55;1.80;;;8.70;99.90;;;;;;5127192;27;20019;-74
2021/12/31 11:15:01;;;;;;;4.85;2.60;;;8.80;99.90;;;;;;5120699;27;20496;-74
2021/12/31 11:17:27;;;;;;;3.30;1.42;;;8.80;99.90;;;;;;5125568;27;20023;-74
2021/12/31 11:19:54;;;;;;;3.63;1.58;;;8.80;99.90;;;;;;5120232;27;20027;-74
2021/12/31 11:22:27;;;;;;;4.57;1.48;;;9.10;99.30;;;;;;5126580;27;20095;-73
2021/12/31 11:24:53;;;;;;;4.68;1.73;;;9.20;99.00;;;;;;5125754;27;20083;-74
2021/12/31 11:27:42;;;;;;;3.28;1.85;;;9.20;99.60;;;;;;5126665;27;20031;-73
2021/12/31 11:30:33;;;;;;;4.50;2.53;;;9.20;99.90;;;;;;5125526;27;20023;-74
2021/12/31 11:33:09;;;;;;;5.47;2.83;;;9.20;99.90;;;;;;5126148;27;20092;-73
2021/12/31 11:35:46;;;;;;;7.28;3.33;;;9.10;99.90;;;;;;5126085;27;20023;-72
2021/12/31 11:38:22;;;;;;;4.03;2.35;;;8.90;99.90;;;;;;5125824;27;20630;-72
2021/12/31 11:41:05;;;;;;;6.07;3.50;;;9.00;99.90;;;;;;5121264;27;20031;-73
2021/12/31 11:43:32;;;;;;;6.72;3.50;;;9.00;99.90;;;;;;5125468;27;20023;-74
2021/12/31 11:48:48;;;;;;;4.40;2.33;;;9.10;99.90;;;;;;5122009;27;20031;-74
2021/12/31 11:51:16;;;;;;;7.00;2.50;;;9.20;99.90;;;;;;5124406;27;20031;-74
2021/12/31 11:54:00;;;;;;;8.65;3.13;;;9.20;99.90;;;;;;5126504;27;20034;-73
2021/12/31 11:56:41;;;;;;;5.68;1.92;;;9.40;99.90;;;;;;5124209;27;20027;-73
2021/12/31 11:59:07;;;;;;;4.65;2.55;;;9.80;99.30;;;;;;5124572;27;20080;-73
2021/12/31 12:01:47;;;;;;;4.10;2.60;;;9.90;99.10;;;;;;5123593;27;20023;-74
2021/12/31 12:04:25;;;;;;;6.25;2.95;;;10.00;99.60;;;;;;5125064;27;20646;-75
2021/12/31 12:07:01;;;;;;;6.05;3.55;;;10.10;99.70;;;;;;5124635;27;20031;-75
2021/12/31 12:09:38;;;;;;;8.32;4.03;;;10.10;99.80;;;;;;5124811;27;20079;-74
2021/12/31 12:12:13;;;;;;;5.30;2.80;;;10.00;99.50;;;;;;5123282;27;20573;-75
2021/12/31 12:14:47;;;;;;;5.40;2.95;;;9.90;99.80;;;;;;5124771;27;20396;-75
2021/12/31 12:17:28;;;;;;;4.82;2.65;;;10.00;99.80;;;;;;5105621;27;21023;-75
2021/12/31 12:20:03;;;;;;;6.28;2.60;;;10.00;99.30;;;;;;5107727;27;20645;-75
2021/12/31 12:23:02;;;;;;;5.93;2.90;;;10.00;98.70;;;;;;5124192;27;20110;-74
2021/12/31 12:25:33;;;;;;;4.07;2.17;;;10.10;99.00;;;;;;5122895;27;20118;-75
2021/12/31 12:28:09;;;;;;;5.32;2.97;;;10.10;99.00;;;;;;5123733;27;20831;-74
2021/12/31 12:30:42;;;;;;;5.78;3.05;;;10.10;99.20;;;;;;5124513;27;20027;-74
2021/12/31 12:33:17;;;;;;;5.93;2.90;;;10.20;99.20;;;;;;5122025;27;20030;-75
2021/12/31 12:35:48;;;;;;;4.53;2.20;;;10.30;99.00;;;;;;5113811;27;20023;-76
2021/12/31 12:38:21;;;;;;;5.88;2.53;;;10.30;98.80;;;;;;5124207;27;20061;-76
2021/12/31 12:40:55;;;;;;;4.85;1.95;;;10.40;98.30;;;;;;5124324;27;20536;-75
2021/12/31 12:43:29;;;;;;;3.45;1.77;;;10.60;98.40;;;;;;5124319;27;20102;-74
2021/12/31 12:45:59;;;;;;;5.32;2.13;;;10.70;97.80;;;;;;5124010;27;20088;-75
2021/12/31 12:48:32;;;;;;;3.75;1.50;;;10.70;97.80;;;;;;5124273;27;20045;-76
2021/12/31 12:50:59;;;;;;;3.63;1.60;;;10.80;97.10;;;;;;5104073;28;20706;-76
2021/12/31 12:53:27;;;;;;;3.78;1.67;;;10.80;97.30;;;;;;5113251;28;20122;-76
2021/12/31 12:56:08;;;;;;;4.32;1.58;;;10.80;97.60;;;;;;5124155;27;20053;-76
2021/12/31 12:58:36;;;;;;;4.93;1.83;;;10.70;96.80;;;;;;5128452;27;20027;-75
2021/12/31 13:01:03;;;;;;;3.05;1.35;;;10.80;97.40;;;;;;5127735;27;20031;-75
2021/12/31 13:03:30;;;;;;;4.80;2.40;;;10.70;97.30;;;;;;5126875;27;20019;-75
2021/12/31 13:06:04;;;;;;;5.53;1.95;;;10.60;97.30;;;;;;5128040;27;20457;-75
2021/12/31 13:08:30;;;;;;;7.47;2.40;;;10.70;97.50;;;;;;5127627;27;20397;-75
2021/12/31 13:10:56;;;;;;;5.28;2.03;;;10.70;97.90;;;;;;5127616;27;20085;-75
2021/12/31 13:13:22;;;;;;;5.97;2.10;;;10.70;97.80;;;;;;5127445;27;20023;-74
2021/12/31 13:15:48;;;;;;;4.03;2.60;;;10.70;97.80;;;;;;5125046;27;20062;-76
2021/12/31 13:18:27;;;;;;;7.28;2.53;;;10.70;98.00;;;;;;5121127;27;20069;-74
2021/12/31 13:21:01;;;;;;;6.32;2.63;;;10.70;98.10;;;;;;5126605;27;20076;-75